In Rescue
 
June 26, 2019 10:00 PM EDT
Weather Information
Wind Direction
  ---
Wind Speed
  00 kt (0 mph)
Wind Gust
  00 kt (0 mph)
Altimeter
30.08 in
Visibility
10 SM
Temperature
25° C
77° F
Dewpoint
14° C
57° F
Humidity
51%
1hr Rain Fall
00.00 in.
24hr Rain Fall
00.00 in.
Sky Condition
Clear
VFR

METAR KONZ 270200Z AUTO 00000KT 10SM CLR 25/14 A3008 RMK AO2 T02480139

FAA Disclaimer: The data displayed is for advisory purposes only and is not to be used for flight planning or operations.